Rankin, Michigan
Current Conditions -  °F | °C
As of 12:53 AM on Tuesday 21 Oct 2014 (Local Time) from KFNT Reporting Station
Overcast Overcast  
Wind Chill: 50°   Ceiling: 2000
Heat Index: 50°   Visibility: 10mi
Dew Point: 44°   Wind: 6mph
Humidity: 80%   Direction: 300°WNW
Pressure: 29.9"   Gusts: NA
Location:  42.9382°N, 83.8244°W
Report Text: KFNT 210453Z AUTO 30005KT 10SM OVC020 10/07 A2990 RMK AO2 SLP125 T01000067 401440094
Loading
Personal Weather Stations






























Interactive Weather Map
Tropical Storm Tracking
New forecast layout! Learn more

10-Day Weather Forecast

Advertisements
Track Severe Weather on mobile